Time;durP1;ratioP1;P1;durP2;ratioP2;P2;SDS_P1;SDS_P2;PMS_P1;PMS_P2;Temp;Humidity;BMP_temperature;BMP_pressure;BME280_temperature;BME280_humidity;BME280_pressure;Samples;Min_cycle;Max_cycle;Signal;HPM_P1;HPM_P2
2022/01/21 00:01:35;;;;;;;76.73;52.87;;;;;;;2.89;56.65;99575.44;6300434;22;20007;-82
2022/01/21 00:04:01;;;;;;;77.30;50.90;;;;;;;2.19;56.50;99474.44;6300136;22;20031;-83
2022/01/21 00:06:26;;;;;;;79.27;50.10;;;;;;;2.70;57.26;99560.50;6272756;22;20016;-82
2022/01/21 00:08:52;;;;;;;75.87;48.47;;;;;;;2.27;56.84;99479.03;6300290;22;20065;-82
2022/01/21 00:11:19;;;;;;;77.87;50.47;;;;;;;2.64;57.00;99547.16;6272960;22;20015;-82
2022/01/21 00:13:45;;;;;;;75.53;50.30;;;;;;;2.88;57.11;99589.44;6299588;22;19995;-83
2022/01/21 00:16:20;;;;;;;77.73;52.50;;;;;;;2.41;56.72;99505.59;6300493;22;20008;-83
2022/01/21 00:18:56;;;;;;;69.50;45.60;;;;;;;2.87;57.03;99590.41;6299562;22;20047;-82
2022/01/21 00:32:20;;;;;;;76.23;47.80;;;;;;;2.49;56.94;99525.81;6274705;22;20010;-76
2022/01/21 00:34:45;;;;;;;74.83;48.03;;;;;;;2.06;56.89;99461.59;6274504;22;20004;-77
2022/01/21 00:37:11;;;;;;;74.57;48.83;;;;;;;2.04;56.92;99444.44;6274525;22;19999;-77
2022/01/21 00:39:37;;;;;;;70.90;47.83;;;;;;;2.64;56.88;99544.56;6274628;22;20007;-77
2022/01/21 00:42:13;;;;;;;65.53;46.23;;;;;;;2.41;56.65;99508.19;6247212;22;20007;-77
2022/01/21 00:44:39;;;;;;;69.50;45.87;;;;;;;2.49;56.76;99520.59;6274681;22;19996;-77
2022/01/21 00:47:06;;;;;;;65.73;42.70;;;;;;;2.27;57.09;99487.69;6242002;23;20016;-77
2022/01/21 00:49:32;;;;;;;64.30;43.93;;;;;;;2.39;57.28;99510.09;6248899;22;19996;-77
2022/01/21 00:51:57;;;;;;;61.27;43.63;;;;;;;2.66;57.42;99543.47;6248501;22;20003;-77
2022/01/21 00:54:23;;;;;;;67.37;43.47;;;;;;;2.75;57.26;99574.00;6248974;22;20006;-77
2022/01/21 00:56:49;;;;;;;63.73;41.30;;;;;;;2.41;57.00;99502.16;6248728;22;20003;-77
2022/01/21 00:59:14;;;;;;;61.83;40.60;;;;;;;2.29;56.97;99480.56;6248746;22;19996;-77
2022/01/21 01:01:39;;;;;;;63.93;41.37;;;;;;;2.39;57.00;99486.66;6248522;22;20079;-77
2022/01/21 01:04:05;;;;;;;65.43;42.93;;;;;;;2.49;56.85;99494.53;6245135;22;19996;-77
2022/01/21 01:06:31;;;;;;;62.93;43.50;;;;;;;2.51;56.89;99485.63;6242105;23;20054;-77
2022/01/21 01:08:57;;;;;;;64.73;41.70;;;;;;;2.45;57.10;99472.28;6243498;22;20024;-76
2022/01/21 01:22:14;;;;;;;61.17;39.67;;;;;;;2.81;56.80;99484.84;6244149;23;20011;-77
2022/01/21 01:27:38;;;;;;;67.30;43.73;;;;;;;2.42;57.01;99431.69;6245323;23;20065;-77
2022/01/21 01:30:10;;;;;;;66.50;45.47;;;;;;;2.80;57.18;99483.19;6245731;22;19996;-77
2022/01/21 01:32:36;;;;;;;67.20;45.47;;;;;;;2.68;56.79;99458.16;6245604;22;20362;-77
2022/01/21 01:35:03;;;;;;;62.53;41.50;;;;;;;3.01;57.10;99509.25;6245805;23;20018;-77
2022/01/21 01:50:57;;;;;;;52.83;36.30;;;;;;;3.06;56.22;99478.38;6275853;22;20003;-77
2022/01/21 01:53:29;;;;;;;58.97;37.83;;;;;;;3.11;56.28;99481.41;6275767;22;19999;-77
2022/01/21 01:55:57;;;;;;;58.57;37.23;;;;;;;2.90;56.53;99432.84;6276065;22;19992;-77
2022/01/21 01:58:22;;;;;;;53.43;34.97;;;;;;;2.93;56.23;99435.19;6248945;22;19999;-77
2022/01/21 02:00:47;;;;;;;55.90;37.13;;;;;;;2.76;56.67;99400.16;6275851;22;20433;-77
2022/01/21 02:03:15;;;;;;;55.20;37.53;;;;;;;3.11;56.62;99460.53;6248804;22;20000;-77
2022/01/21 02:05:42;;;;;;;60.60;38.23;;;;;;;3.13;56.55;99437.75;6275940;22;20000;-77
2022/01/21 02:08:10;;;;;;;62.57;38.17;;;;;;;2.72;56.34;99370.09;6275734;22;20452;-76
2022/01/21 02:10:36;;;;;;;63.27;39.20;;;;;;;2.88;56.53;99420.78;6275932;22;20057;-77
2022/01/21 02:13:17;;;;;;;60.57;38.17;;;;;;;3.04;56.56;99446.38;6275725;22;20010;-76
2022/01/21 02:15:44;;;;;;;58.13;39.73;;;;;;;3.07;56.70;99440.06;6276223;22;19992;-77
2022/01/21 02:23:38;;;;;;;75.77;44.30;;;;;;;2.95;56.85;99454.97;6275775;22;20011;-77
2022/01/21 02:26:03;;;;;;;75.53;43.40;;;;;;;3.12;57.04;99477.03;6275840;22;19996;-77
2022/01/21 02:28:29;;;;;;;79.87;46.20;;;;;;;2.62;56.76;99390.91;6275834;22;20011;-76
2022/01/21 02:30:56;;;;;;;70.00;41.90;;;;;;;3.18;56.44;99461.66;6275748;22;20034;-77
2022/01/21 02:33:23;;;;;;;67.70;41.70;;;;;;;2.43;56.39;99331.72;6275437;22;20003;-77
2022/01/21 02:35:49;;;;;;;58.37;35.80;;;;;;;3.24;56.38;99459.47;6275438;22;19991;-77
2022/01/21 02:38:15;;;;;;;59.27;38.23;;;;;;;2.82;56.23;99389.19;6275532;22;20110;-77
2022/01/21 02:40:40;;;;;;;59.83;37.43;;;;;;;2.81;56.33;99384.94;6275452;22;20447;-77
2022/01/21 02:43:06;;;;;;;65.40;36.63;;;;;;;3.25;56.43;99430.66;6275125;22;19995;-77
2022/01/21 02:45:31;;;;;;;59.40;36.20;;;;;;;3.09;56.51;99384.22;6274918;22;20007;-77
2022/01/21 02:47:57;;;;;;;60.80;38.20;;;;;;;2.67;56.69;99320.13;6277474;22;20000;-77
2022/01/21 02:50:23;;;;;;;60.37;39.33;;;;;;;3.19;56.32;99415.53;6254143;22;19999;-76
2022/01/21 02:55:32;;;;;;;53.43;35.13;;;;;;;3.03;56.39;99399.56;6276802;22;20010;-77
2022/01/21 02:57:58;;;;;;;56.00;36.20;;;;;;;3.31;56.73;99448.38;6249731;22;20027;-77
2022/01/21 03:00:23;;;;;;;55.77;34.70;;;;;;;2.58;56.40;99331.34;6277595;22;20063;-77
2022/01/21 03:02:49;;;;;;;60.40;36.77;;;;;;;3.02;56.25;99405.75;6276626;22;20090;-76
2022/01/21 03:05:16;;;;;;;58.77;35.90;;;;;;;3.26;56.16;99468.00;6248144;22;20378;-76
2022/01/21 03:07:41;;;;;;;51.73;32.30;;;;;;;3.33;56.37;99495.22;6275217;22;20495;-77
2022/01/21 03:10:08;;;;;;;55.10;33.50;;;;;;;3.26;56.03;99473.22;6275656;22;20079;-76
2022/01/21 03:12:33;;;;;;;53.93;34.53;;;;;;;3.24;56.45;99469.91;6275501;22;20007;-76
2022/01/21 03:14:58;;;;;;;46.93;32.10;;;;;;;2.93;56.04;99422.16;6275285;22;20353;-76
2022/01/21 03:17:24;;;;;;;47.57;31.77;;;;;;;3.41;55.95;99490.16;6248061;22;20413;-77
2022/01/21 03:19:49;;;;;;;56.73;34.10;;;;;;;3.18;56.57;99455.63;6274825;22;20083;-77
2022/01/21 03:22:15;;;;;;;47.80;26.87;;;;;;;3.24;56.03;99475.13;6275133;22;19999;-77
2022/01/21 03:24:40;;;;;;;16.07;11.50;;;;;;;2.96;55.82;99440.97;6248037;22;20006;-77
2022/01/21 03:27:05;;;;;;;12.40;9.67;;;;;;;3.27;55.47;99527.88;6275080;22;20031;-77
2022/01/21 03:29:31;;;;;;;13.70;10.77;;;;;;;3.05;55.09;99505.41;6275091;22;20398;-77
2022/01/21 03:31:57;;;;;;;16.70;11.80;;;;;;;3.12;55.31;99516.16;6247608;22;20057;-77
2022/01/21 03:34:22;;;;;;;21.00;12.93;;;;;;;3.07;55.69;99526.16;6274871;22;20000;-77
2022/01/21 03:36:49;;;;;;;18.40;13.20;;;;;;;2.80;55.15;99483.19;6274869;22;20403;-77
2022/01/21 03:39:15;;;;;;;19.13;14.53;;;;;;;2.51;55.13;99445.72;6274739;22;20000;-77
2022/01/21 03:41:41;;;;;;;19.27;15.33;;;;;;;2.70;55.55;99471.88;6247981;22;20007;-77
2022/01/21 03:44:06;;;;;;;21.47;15.13;;;;;;;2.95;55.61;99493.25;6274744;22;20004;-77
2022/01/21 03:46:32;;;;;;;20.13;13.73;;;;;;;2.68;55.22;99463.38;6247063;22;20022;-76
2022/01/21 03:48:57;;;;;;;20.83;14.63;;;;;;;2.28;55.58;99402.53;6276164;22;19996;-77
2022/01/21 03:51:23;;;;;;;20.07;15.27;;;;;;;2.96;55.53;99513.16;6276633;22;19987;-77
2022/01/21 03:53:49;;;;;;;21.40;15.43;;;;;;;2.51;55.08;99454.38;6276697;22;20010;-76
2022/01/21 03:56:15;;;;;;;18.87;15.03;;;;;;;2.90;55.26;99527.56;6276907;22;19991;-77
2022/01/21 03:58:41;;;;;;;19.57;15.10;;;;;;;2.70;55.37;99489.31;6277793;22;20066;-77
2022/01/21 04:01:07;;;;;;;25.50;17.33;;;;;;;2.94;55.19;99523.72;6277951;22;19999;-77
2022/01/21 04:03:33;;;;;;;21.47;16.17;;;;;;;2.49;55.32;99460.66;6277290;22;20074;-77
2022/01/21 04:05:58;;;;;;;23.63;15.63;;;;;;;2.58;54.91;99465.09;6277545;22;19999;-77
2022/01/21 04:08:23;;;;;;;24.53;16.53;;;;;;;2.64;54.79;99443.72;6277684;22;20126;-77
2022/01/21 04:10:49;;;;;;;20.93;15.23;;;;;;;3.09;55.00;99509.41;6250757;22;20007;-77
2022/01/21 04:13:18;;;;;;;24.00;16.03;;;;;;;3.08;54.82;99519.97;6277932;22;19996;-77
2022/01/21 04:15:49;;;;;;;25.57;18.43;;;;;;;2.66;54.81;99457.47;6277691;22;19992;-77
2022/01/21 04:18:15;;;;;;;27.35;16.88;;;;;;;2.49;54.99;99438.03;6278151;22;20004;-77
2022/01/21 04:20:42;;;;;;;24.50;18.30;;;;;;;2.99;55.31;99526.81;6277592;22;20445;-77
2022/01/21 04:23:08;;;;;;;26.17;17.43;;;;;;;2.98;55.21;99519.09;6277789;22;19999;-77
2022/01/21 04:25:34;;;;;;;30.77;19.60;;;;;;;2.26;55.07;99404.44;6277693;22;19996;-77
2022/01/21 04:27:59;;;;;;;26.27;17.17;;;;;;;2.52;54.96;99466.44;6277786;22;20022;-77
2022/01/21 04:30:25;;;;;;;25.87;17.17;;;;;;;2.88;55.00;99512.03;6250689;22;20047;-77
2022/01/21 04:32:50;;;;;;;27.83;17.17;;;;;;;2.38;54.83;99438.09;6276556;22;20441;-77
2022/01/21 04:35:15;;;;;;;27.00;17.70;;;;;;;2.96;54.60;99527.03;6274895;22;20390;-77
2022/01/21 04:37:49;;;;;;;26.83;18.07;;;;;;;2.44;54.61;99455.84;6274923;22;19996;-76
2022/01/21 04:40:17;;;;;;;29.20;21.20;;;;;;;2.95;54.74;99527.16;6274897;22;19995;-77
2022/01/21 04:48:10;;;;;;;31.30;21.97;;;;;;;2.88;54.84;99522.47;6274894;22;20055;-76
2022/01/21 04:50:53;;;;;;;35.07;24.20;;;;;;;2.67;54.79;99490.38;6274680;22;19999;-77
2022/01/21 04:53:19;;;;;;;33.27;21.33;;;;;;;2.74;54.68;99488.91;6247976;22;20519;-77
2022/01/21 04:55:45;;;;;;;33.03;22.07;;;;;;;3.15;54.16;99549.81;6274476;22;19991;-77
2022/01/21 04:58:11;;;;;;;37.80;23.50;;;;;;;3.16;54.09;99552.28;6275575;22;19996;-77
2022/01/21 05:00:36;;;;;;;35.47;23.80;;;;;;;2.82;54.34;99506.50;6276843;22;19999;-77
2022/01/21 05:03:01;;;;;;;30.70;23.93;;;;;;;3.16;54.44;99539.25;6249376;22;20031;-77
2022/01/21 05:05:27;;;;;;;34.70;25.17;;;;;;;3.19;54.32;99552.00;6249612;22;20068;-77
2022/01/21 05:07:54;;;;;;;32.33;21.63;;;;;;;3.21;54.15;99538.84;6276677;22;20563;-77
2022/01/21 05:10:20;;;;;;;27.87;20.43;;;;;;;2.77;54.06;99464.38;6276689;22;19999;-77
2022/01/21 05:12:45;;;;;;;25.97;19.50;;;;;;;3.15;54.07;99527.16;6276614;22;20437;-76
2022/01/21 05:15:24;;;;;;;33.07;22.40;;;;;;;2.93;54.47;99490.78;6276731;22;19999;-77
2022/01/21 05:17:50;;;;;;;26.53;19.87;;;;;;;3.13;54.49;99507.38;6276390;22;19992;-77
2022/01/21 05:20:17;;;;;;;28.33;21.03;;;;;;;2.90;54.34;99467.56;6276370;22;19995;-77
2022/01/21 05:22:43;;;;;;;30.17;23.33;;;;;;;3.27;54.43;99540.09;6276443;22;20000;-77
2022/01/21 05:25:16;;;;;;;33.60;23.80;;;;;;;3.20;53.93;99521.53;6249144;22;20000;-77
2022/01/21 05:27:44;;;;;;;36.43;26.93;;;;;;;3.31;54.06;99555.34;6275984;22;20057;-77
2022/01/21 05:30:10;;;;;;;39.00;26.73;;;;;;;2.97;54.09;99507.81;6276295;22;20000;-76
2022/01/21 05:32:35;;;;;;;35.80;26.20;;;;;;;3.38;54.21;99571.31;6276253;22;20053;-77
2022/01/21 05:35:01;;;;;;;35.83;26.00;;;;;;;3.36;53.74;99571.44;6249111;22;20004;-77
2022/01/21 05:37:26;;;;;;;40.17;28.93;;;;;;;3.02;54.08;99523.94;6276314;22;20349;-77
2022/01/21 05:39:52;;;;;;;49.50;34.00;;;;;;;3.13;54.24;99551.72;6276241;22;20357;-77
2022/01/21 05:42:20;;;;;;;56.50;37.90;;;;;;;3.21;54.37;99583.19;6276655;22;20007;-77
2022/01/21 05:47:11;;;;;;;66.27;46.33;;;;;;;3.34;54.07;99599.47;6275930;22;20019;-77
2022/01/21 05:49:37;;;;;;;65.60;44.67;;;;;;;3.38;53.93;99598.25;6276081;22;20054;-77
2022/01/21 05:52:09;;;;;;;67.20;45.27;;;;;;;3.38;54.31;99590.41;6276297;22;20003;-77
2022/01/21 05:54:35;;;;;;;65.97;42.90;;;;;;;3.46;53.85;99601.03;6276395;22;19999;-76
2022/01/21 05:57:05;;;;;;;66.40;45.17;;;;;;;3.38;53.97;99587.81;6275826;22;19992;-77
2022/01/21 05:59:31;;;;;;;62.57;42.17;;;;;;;3.06;53.77;99533.16;6248637;22;20000;-77
2022/01/21 06:01:56;;;;;;;63.67;42.93;;;;;;;2.91;53.86;99503.13;6275647;22;20035;-77
2022/01/21 06:04:22;;;;;;;72.17;47.70;;;;;;;3.35;53.95;99580.22;6275715;22;19995;-77
2022/01/21 06:06:47;;;;;;;76.37;51.50;;;;;;;3.53;53.95;99609.16;6248902;22;20083;-77
2022/01/21 06:09:12;;;;;;;80.50;53.57;;;;;;;3.55;54.08;99622.06;6275501;22;20420;-77
2022/01/21 06:11:38;;;;;;;79.73;54.57;;;;;;;3.24;54.08;99558.63;6248794;22;20078;-76
2022/01/21 06:14:04;;;;;;;78.17;51.63;;;;;;;3.70;53.87;99644.25;6275677;22;20026;-76
2022/01/21 06:16:30;;;;;;;76.00;49.43;;;;;;;3.73;53.84;99634.41;6275908;22;20433;-77
2022/01/21 06:18:57;;;;;;;52.47;35.10;;;;;;;3.78;54.04;99647.88;6275387;22;20133;-77
2022/01/21 06:21:22;;;;;;;45.60;32.27;;;;;;;3.58;53.28;99583.47;6275511;22;20023;-77
2022/01/21 06:23:48;;;;;;;39.57;28.17;;;;;;;3.51;53.12;99572.75;6275510;22;20000;-77
2022/01/21 06:26:13;;;;;;;37.30;26.20;;;;;;;3.56;53.02;99580.16;6275530;22;20004;-78
2022/01/21 06:28:39;;;;;;;33.63;20.90;;;;;;;3.99;52.98;99639.97;6275773;22;20734;-77
2022/01/21 06:31:05;;;;;;;31.67;21.37;;;;;;;3.83;52.85;99629.22;6275579;22;19999;-77
2022/01/21 06:33:30;;;;;;;31.67;22.80;;;;;;;4.04;52.46;99663.09;6275097;22;20459;-78
2022/01/21 06:35:55;;;;;;;39.73;25.40;;;;;;;3.66;52.37;99607.13;6275150;22;19996;-77
2022/01/21 06:38:21;;;;;;;35.87;24.53;;;;;;;4.05;52.89;99678.63;6275250;22;20468;-77
2022/01/21 06:40:48;;;;;;;35.37;24.53;;;;;;;3.72;52.46;99616.25;6275321;22;19995;-77
2022/01/21 06:43:15;;;;;;;35.67;22.40;;;;;;;4.14;52.11;99682.22;6248196;22;20468;-77
2022/01/21 06:45:41;;;;;;;28.87;20.07;;;;;;;4.15;52.18;99684.72;6275010;22;20445;-77
2022/01/21 06:48:07;;;;;;;33.43;23.53;;;;;;;3.62;52.06;99610.16;6274543;22;20004;-77
2022/01/21 06:50:39;;;;;;;35.83;23.43;;;;;;;4.19;52.35;99695.72;6275290;22;20128;-77
2022/01/21 06:53:05;;;;;;;39.27;25.13;;;;;;;4.14;52.45;99690.06;6273200;22;20330;-77
2022/01/21 06:55:31;;;;;;;32.60;22.80;;;;;;;3.66;52.42;99617.56;6246856;22;20006;-77
2022/01/21 06:57:56;;;;;;;36.67;23.73;;;;;;;3.76;52.24;99656.81;6274344;22;20001;-77
2022/01/21 07:00:22;;;;;;;32.53;22.03;;;;;;;4.19;52.28;99710.56;6247361;22;20004;-77
2022/01/21 07:02:51;;;;;;;36.33;23.53;;;;;;;4.22;52.48;99718.97;6280542;22;20030;-77
2022/01/21 07:05:17;;;;;;;36.37;23.90;;;;;;;4.05;51.75;99691.69;6248202;22;20079;-77
2022/01/21 07:07:43;;;;;;;36.67;26.23;;;;;;;3.71;52.04;99643.28;6274368;22;20023;-77
2022/01/21 07:10:11;;;;;;;34.70;23.37;;;;;;;4.33;51.80;99731.09;6247827;22;20484;-77
2022/01/21 07:12:37;;;;;;;36.53;24.27;;;;;;;3.91;52.00;99658.09;6274538;22;20468;-77
2022/01/21 07:15:07;;;;;;;34.53;21.90;;;;;;;4.38;52.67;99728.91;6275211;22;20074;-77
2022/01/21 07:17:33;;;;;;;30.43;20.43;;;;;;;4.14;52.85;99706.56;6248400;22;20065;-76
2022/01/21 07:19:59;;;;;;;32.80;21.77;;;;;;;4.18;53.48;99717.59;6275726;22;20004;-76
2022/01/21 07:22:24;;;;;;;32.50;22.07;;;;;;;3.93;53.71;99694.53;6272991;22;20408;-77
2022/01/21 07:24:49;;;;;;;35.30;22.73;;;;;;;3.89;54.23;99693.97;6274885;22;20061;-77
2022/01/21 07:27:15;;;;;;;35.63;24.87;;;;;;;3.78;55.09;99701.91;6247549;22;20330;-77
2022/01/21 07:29:40;;;;;;;35.20;23.87;;;;;;;3.63;55.80;99684.91;6247171;22;19999;-76
2022/01/21 07:32:07;;;;;;;33.90;23.67;;;;;;;3.79;56.41;99738.34;6256711;22;19979;-77
2022/01/21 07:34:32;;;;;;;36.73;24.63;;;;;;;3.89;57.53;99766.28;6274504;22;20000;-77
2022/01/21 07:36:58;;;;;;;40.17;25.97;;;;;;;3.86;58.20;99779.59;6246906;22;19995;-78
2022/01/21 07:39:23;;;;;;;41.53;28.30;;;;;;;3.04;58.53;99657.66;6273196;22;20433;-77
2022/01/21 07:41:49;;;;;;;42.10;30.43;;;;;;;3.66;58.37;99765.56;6274076;22;20361;-77
2022/01/21 07:44:15;;;;;;;47.03;31.43;;;;;;;3.61;58.96;99771.19;6272958;22;19995;-75
2022/01/21 07:46:43;;;;;;;42.80;31.43;;;;;;;3.27;59.37;99725.34;6246427;22;20023;-75
2022/01/21 07:49:09;;;;;;;41.63;29.27;;;;;;;3.72;59.93;99802.47;6273155;22;19996;-76
2022/01/21 07:51:35;;;;;;;41.53;28.00;;;;;;;3.66;60.74;99807.34;6272635;22;19995;-76
2022/01/21 07:54:02;;;;;;;44.37;29.53;;;;;;;3.12;60.93;99738.72;6273770;22;20027;-76
2022/01/21 07:56:28;;;;;;;43.93;29.10;;;;;;;3.51;61.58;99814.66;6246741;22;20368;-76
2022/01/21 07:58:54;;;;;;;43.83;29.53;;;;;;;3.48;62.10;99818.38;6274134;22;19996;-76
2022/01/21 08:01:20;;;;;;;45.93;29.93;;;;;;;3.36;62.32;99801.09;6272605;22;20006;-77
2022/01/21 08:03:45;;;;;;;41.70;29.70;;;;;;;3.18;62.39;99761.69;6246266;22;20023;-76
2022/01/21 08:06:11;;;;;;;39.90;28.57;;;;;;;2.55;62.56;99677.28;6273992;22;20003;-76
2022/01/21 08:08:36;;;;;;;40.97;27.83;;;;;;;3.61;62.71;99833.00;6274568;22;20007;-76
2022/01/21 08:11:01;;;;;;;39.40;26.43;;;;;;;3.32;63.17;99783.22;6273652;22;20003;-76
2022/01/21 08:13:27;;;;;;;40.17;27.93;;;;;;;3.23;62.98;99766.53;6246488;22;19999;-76
2022/01/21 08:15:54;;;;;;;41.63;28.03;;;;;;;3.40;63.14;99806.91;6273355;22;19992;-77
2022/01/21 08:18:19;;;;;;;43.77;28.93;;;;;;;3.27;62.87;99793.19;6274536;22;20010;-76
2022/01/21 08:20:45;;;;;;;36.30;26.67;;;;;;;3.65;63.12;99855.31;6272964;22;20070;-76
2022/01/21 08:23:11;;;;;;;43.73;30.13;;;;;;;3.34;63.13;99800.41;6274416;22;20031;-76
2022/01/21 08:25:37;;;;;;;41.50;27.93;;;;;;;3.66;63.71;99856.97;6273788;22;20002;-76
2022/01/21 08:28:03;;;;;;;38.87;27.20;;;;;;;3.44;64.17;99824.78;6274064;22;20002;-76
2022/01/21 08:30:29;;;;;;;36.03;24.63;;;;;;;3.36;64.17;99818.53;6273970;22;19995;-77
2022/01/21 08:32:54;;;;;;;34.17;25.43;;;;;;;3.51;64.39;99844.22;6274891;22;20000;-75
2022/01/21 08:35:20;;;;;;;37.40;24.40;;;;;;;3.69;64.27;99875.00;6275165;22;20003;-76
2022/01/21 08:37:45;;;;;;;29.80;21.87;;;;;;;3.80;64.49;99896.69;6275040;22;19996;-77
2022/01/21 08:40:11;;;;;;;37.33;26.07;;;;;;;3.38;64.40;99834.91;6247412;22;20479;-76
2022/01/21 08:42:37;;;;;;;36.47;25.40;;;;;;;3.22;64.40;99797.97;6275270;22;20524;-76
2022/01/21 08:45:03;;;;;;;35.90;25.67;;;;;;;3.71;65.41;99888.75;6276011;22;20000;-75
2022/01/21 08:47:29;;;;;;;37.33;26.53;;;;;;;3.46;65.58;99875.09;6274703;22;20035;-75
2022/01/21 08:49:56;;;;;;;51.23;32.73;;;;;;;3.49;65.43;99881.84;6275625;22;19995;-76
2022/01/21 08:52:26;;;;;;;41.13;26.07;;;;;;;3.28;65.45;99870.53;6275245;22;20066;-76
2022/01/21 08:54:51;;;;;;;33.67;22.83;;;;;;;3.20;65.66;99860.72;6275149;22;20084;-77
2022/01/21 08:57:18;;;;;;;25.03;17.40;;;;;;;3.44;66.06;99882.22;6247457;22;20445;-77
2022/01/21 08:59:44;;;;;;;22.40;14.67;;;;;;;3.61;65.87;99914.78;6248251;22;19999;-76
2022/01/21 09:02:10;;;;;;;18.33;13.20;;;;;;;2.68;66.00;99762.31;6274896;22;19995;-77
2022/01/21 09:04:36;;;;;;;15.83;11.10;;;;;;;2.99;66.03;99825.91;6274184;22;20040;-76
2022/01/21 09:07:02;;;;;;;25.10;13.50;;;;;;;3.56;66.68;99906.50;6275938;22;20010;-77
2022/01/21 09:09:28;;;;;;;21.80;14.03;;;;;;;3.29;66.40;99854.75;6275810;22;20000;-77
2022/01/21 09:11:59;;;;;;;21.57;14.53;;;;;;;3.08;66.49;99817.34;6275788;22;19995;-77
2022/01/21 09:14:29;;;;;;;19.10;13.30;;;;;;;3.27;66.60;99867.09;6275181;22;20453;-77
2022/01/21 09:16:56;;;;;;;15.17;12.00;;;;;;;3.02;66.41;99805.63;6248779;22;20063;-77
2022/01/21 09:19:21;;;;;;;15.67;12.73;;;;;;;3.51;66.34;99882.53;6275111;22;20075;-77
2022/01/21 09:21:51;;;;;;;18.57;16.23;;;;;;;3.39;66.36;99866.09;6274437;22;20018;-77
2022/01/21 09:24:17;;;;;;;21.93;16.73;;;;;;;3.67;66.71;99916.91;6248350;22;20434;-77
2022/01/21 09:26:43;;;;;;;21.77;15.97;;;;;;;3.24;66.46;99862.13;6248012;22;20031;-78
2022/01/21 09:29:08;;;;;;;22.77;16.57;;;;;;;3.18;66.54;99842.56;6275910;22;20074;-77
2022/01/21 09:31:34;;;;;;;18.03;12.67;;;;;;;3.19;66.79;99833.78;6273619;22;20023;-77
2022/01/21 09:33:59;;;;;;;16.77;12.87;;;;;;;2.51;66.73;99722.78;6276190;22;19996;-77
2022/01/21 09:36:25;;;;;;;17.63;12.83;;;;;;;2.94;66.76;99799.34;6275941;22;20345;-76
2022/01/21 09:38:50;;;;;;;17.57;15.37;;;;;;;3.23;66.74;99849.19;6248316;22;20050;-77
2022/01/21 09:41:17;;;;;;;37.93;16.77;;;;;;;3.59;66.88;99903.63;6275307;22;20026;-77
2022/01/21 09:43:52;;;;;;;23.90;18.13;;;;;;;3.54;67.46;99889.28;6274463;22;20338;-77
2022/01/21 09:46:32;;;;;;;28.07;20.23;;;;;;;3.11;67.33;99825.75;6247102;22;20015;-77
2022/01/21 09:49:07;;;;;;;18.70;15.07;;;;;;;3.59;66.78;99890.56;6275994;22;20053;-76
2022/01/21 09:51:37;;;;;;;15.23;12.30;;;;;;;3.59;66.99;99898.41;6248374;22;20075;-77
2022/01/21 09:54:04;;;;;;;14.80;12.43;;;;;;;3.59;67.01;99887.97;6274269;22;20015;-77
2022/01/21 09:56:31;;;;;;;16.43;12.03;;;;;;;3.61;66.87;99883.44;6275803;22;19999;-77
2022/01/21 09:58:59;;;;;;;20.37;15.43;;;;;;;2.95;67.23;99764.47;6275464;22;20034;-77
2022/01/21 10:01:25;;;;;;;49.07;15.30;;;;;;;3.41;67.60;99839.88;6248010;22;20031;-77
2022/01/21 10:03:51;;;;;;;15.50;10.57;;;;;;;2.90;67.48;99775.28;6274841;22;19999;-77
2022/01/21 10:06:18;;;;;;;18.60;12.77;;;;;;;3.65;67.86;99858.75;6275349;22;20086;-77
2022/01/21 10:08:44;;;;;;;16.40;12.73;;;;;;;3.69;67.23;99864.53;6248357;22;20075;-77
2022/01/21 10:11:11;;;;;;;12.97;9.83;;;;;;;3.40;67.80;99840.81;6275202;22;19995;-77
2022/01/21 10:13:37;;;;;;;12.83;9.47;;;;;;;3.62;67.76;99850.34;6275959;22;20049;-77
2022/01/21 10:16:04;;;;;;;15.07;11.33;;;;;;;3.70;67.61;99858.38;6248463;22;20017;-77
2022/01/21 10:18:30;;;;;;;10.57;8.07;;;;;;;3.24;67.86;99785.63;6275248;22;20000;-77
2022/01/21 10:21:10;;;;;;;11.00;7.50;;;;;;;3.41;68.16;99801.56;6275483;22;20004;-77
2022/01/21 10:23:39;;;;;;;10.53;7.80;;;;;;;3.55;68.01;99807.41;6279190;22;20006;-82
2022/01/21 10:26:10;;;;;;;12.20;7.63;;;;;;;3.88;67.65;99845.59;6282081;22;20035;-81
2022/01/21 10:28:41;;;;;;;9.13;6.90;;;;;;;3.85;68.02;99831.00;6286373;22;20478;-82
2022/01/21 10:31:16;;;;;;;8.87;5.70;;;;;;;4.01;68.16;99836.59;6290288;22;20118;-81
2022/01/21 10:33:52;;;;;;;9.33;6.60;;;;;;;3.98;67.72;99834.25;6260841;22;20018;-81
2022/01/21 10:36:28;;;;;;;8.90;7.23;;;;;;;4.08;67.17;99831.69;6285774;22;20023;-81
2022/01/21 10:41:39;;;;;;;12.73;8.97;;;;;;;3.95;66.41;99803.16;6289949;22;20000;-82
2022/01/21 10:44:12;;;;;;;22.97;8.90;;;;;;;4.19;66.91;99826.38;6289027;22;20003;-82
2022/01/21 10:46:40;;;;;;;12.43;8.90;;;;;;;4.23;66.96;99832.19;6286303;22;20007;-81
2022/01/21 10:49:08;;;;;;;10.73;6.67;;;;;;;4.10;66.98;99822.75;6284735;22;20030;-81
2022/01/21 10:51:39;;;;;;;10.27;7.30;;;;;;;4.11;67.01;99821.81;6255502;22;19999;-82
2022/01/21 10:54:26;;;;;;;7.17;5.60;;;;;;;4.05;67.13;99817.09;6276484;22;19996;-81
2022/01/21 10:57:15;;;;;;;9.03;5.87;;;;;;;4.00;67.69;99808.00;6275920;22;20008;-81
2022/01/21 11:00:05;;;;;;;9.13;6.90;;;;;;;4.04;67.25;99804.16;6278786;22;20335;-81
2022/01/21 11:02:46;;;;;;;15.43;9.63;;;;;;;4.08;66.96;99795.09;6277036;22;20000;-81
2022/01/21 11:05:30;;;;;;;25.63;8.20;;;;;;;4.11;67.04;99806.13;6280330;22;19996;-81
2022/01/21 11:08:02;;;;;;;31.47;7.90;;;;;;;4.06;66.29;99800.47;6254988;22;20003;-81
2022/01/21 11:10:42;;;;;;;8.53;5.20;;;;;;;4.08;66.34;99782.88;6256819;22;19995;-81
2022/01/21 11:13:15;;;;;;;8.33;4.63;;;;;;;4.06;66.30;99784.78;6282647;22;20019;-81
2022/01/21 11:15:46;;;;;;;9.73;6.10;;;;;;;4.06;65.41;99774.34;6254171;22;20027;-82
2022/01/21 11:18:15;;;;;;;7.63;5.37;;;;;;;3.44;65.52;99691.69;6278234;22;19999;-80
2022/01/21 11:20:45;;;;;;;10.03;6.33;;;;;;;3.70;65.64;99712.97;6276489;22;20054;-80
2022/01/21 11:23:11;;;;;;;4.80;3.80;;;;;;;3.81;65.09;99728.59;6249744;22;20003;-76
2022/01/21 11:26:12;;;;;;;7.60;4.63;;;;;;;4.14;64.53;99771.06;6244403;22;20072;-75
2022/01/21 11:28:47;;;;;;;11.67;6.17;;;;;;;4.19;64.44;99768.88;6246939;22;19995;-75
2022/01/21 11:31:14;;;;;;;10.20;6.93;;;;;;;3.35;63.85;99623.78;6274913;22;20053;-76
2022/01/21 11:33:39;;;;;;;8.83;7.20;;;;;;;3.92;63.98;99721.63;6246120;22;19995;-75
2022/01/21 11:36:06;;;;;;;8.57;6.30;;;;;;;4.28;63.66;99751.59;6274545;22;19992;-75
2022/01/21 11:38:36;;;;;;;10.73;5.80;;;;;;;4.28;63.77;99751.59;6247773;22;20000;-76
2022/01/21 11:41:04;;;;;;;7.17;4.47;;;;;;;3.92;63.20;99693.72;6274010;22;20004;-76
2022/01/21 11:43:32;;;;;;;9.03;6.30;;;;;;;3.99;62.79;99697.44;6274693;22;19995;-76
2022/01/21 11:50:59;;;;;;;8.13;5.10;;;;;;;3.87;62.62;99689.84;6274431;22;20003;-75
2022/01/21 11:53:49;;;;;;;6.90;4.23;;;;;;;3.97;61.07;99708.97;6274791;22;20003;-77
2022/01/21 11:56:44;;;;;;;27.03;6.67;;;;;;;4.22;60.99;99742.50;6273548;22;20326;-76
2022/01/21 12:01:59;;;;;;;8.47;5.43;;;;;;;4.25;61.31;99762.31;6273943;22;20003;-76
2022/01/21 12:04:31;;;;;;;8.57;5.70;;;;;;;4.22;61.21;99746.88;6276385;22;20433;-76
2022/01/21 12:06:57;;;;;;;7.63;5.25;;;;;;;4.19;60.80;99747.16;6294916;22;20000;-77
2022/01/21 12:09:55;;;;;;;8.23;5.47;;;;;;;4.23;61.05;99741.53;6287705;22;20010;-77
2022/01/21 12:12:23;;;;;;;6.13;4.53;;;;;;;4.22;61.04;99729.41;6279522;22;19999;-75
2022/01/21 12:14:54;;;;;;;5.37;4.20;;;;;;;3.85;60.65;99696.97;6274785;22;20010;-76
2022/01/21 12:17:46;;;;;;;6.33;4.33;;;;;;;4.21;60.77;99730.38;6274730;22;20018;-75
2022/01/21 12:20:12;;;;;;;6.47;4.35;;;;;;;3.79;60.06;99661.78;6247380;22;20003;-76
2022/01/21 12:22:38;;;;;;;5.13;3.90;;;;;;;4.12;59.98;99744.25;6274071;22;20019;-76
2022/01/21 12:25:11;;;;;;;7.70;4.77;;;;;;;4.08;60.18;99738.47;6279020;22;20399;-80
2022/01/21 12:27:38;;;;;;;8.27;5.53;;;;;;;4.09;59.88;99734.88;6278856;22;20004;-80
2022/01/21 12:30:29;;;;;;;7.30;4.97;;;;;;;4.10;59.61;99736.53;6278051;22;20029;-80
2022/01/21 12:33:02;;;;;;;35.17;17.27;;;;;;;3.99;58.60;99746.25;6249671;22;20348;-80
2022/01/21 12:35:29;;;;;;;16.83;9.43;;;;;;;3.53;58.77;99661.34;6279043;22;20003;-81